createdAt,value
2018-01-30T00:02:05.405Z,1.80
2018-01-30T00:04:33.669Z,1.70
2018-01-30T00:07:01.172Z,3.00
2018-01-30T00:09:28.680Z,2.87
2018-01-30T00:11:56.165Z,2.30
2018-01-30T00:14:24.410Z,5.10
2018-01-30T00:16:51.901Z,3.13
2018-01-30T00:19:20.169Z,3.57
2018-01-30T00:21:48.449Z,3.50
2018-01-30T00:24:16.697Z,3.37
2018-01-30T00:26:44.188Z,2.70
2018-01-30T00:29:12.437Z,3.07
2018-01-30T00:31:39.946Z,3.13
2018-01-30T00:34:07.445Z,3.73
2018-01-30T00:36:34.926Z,4.07
2018-01-30T00:39:03.206Z,5.40
2018-01-30T00:41:31.480Z,10.00
2018-01-30T00:43:59.750Z,4.40
2018-01-30T00:46:28.042Z,6.73
2018-01-30T00:48:56.394Z,5.10
2018-01-30T00:51:23.880Z,4.47
2018-01-30T00:53:52.157Z,5.33
2018-01-30T00:56:20.405Z,5.80
2018-01-30T00:58:47.908Z,5.47
2018-01-30T01:01:15.426Z,5.73
2018-01-30T01:03:42.913Z,6.67
2018-01-30T01:06:11.177Z,6.47
2018-01-30T01:08:39.430Z,6.87
2018-01-30T01:11:06.940Z,7.70
2018-01-30T01:13:34.449Z,8.47
2018-01-30T01:16:01.966Z,8.70
2018-01-30T01:18:29.461Z,8.03
2018-01-30T01:20:56.945Z,8.37
2018-01-30T01:23:24.447Z,7.80
2018-01-30T01:25:51.937Z,8.00
2018-01-30T01:28:19.442Z,8.47
2018-01-30T01:30:47.013Z,8.63
2018-01-30T01:33:14.526Z,8.53
2018-01-30T01:35:42.009Z,8.80
2018-01-30T01:38:10.276Z,8.10
2018-01-30T01:40:38.562Z,9.43
2018-01-30T01:43:06.049Z,8.00
2018-01-30T01:45:33.557Z,8.90
2018-01-30T01:48:01.056Z,8.73
2018-01-30T01:50:28.577Z,8.77
2018-01-30T01:52:56.069Z,9.23
2018-01-30T01:55:24.336Z,10.00
2018-01-30T01:57:52.598Z,9.20
2018-01-30T02:00:20.882Z,10.10
2018-01-30T02:02:49.142Z,10.37
2018-01-30T02:05:16.632Z,10.70
2018-01-30T02:07:44.903Z,11.27
2018-01-30T02:10:13.162Z,12.00
2018-01-30T02:12:42.461Z,13.10
2018-01-30T02:15:09.945Z,12.33
2018-01-30T02:17:38.216Z,11.70
2018-01-30T02:20:06.481Z,12.30
2018-01-30T02:22:34.753Z,14.00
2018-01-30T02:25:03.026Z,13.97
2018-01-30T02:27:30.544Z,13.40
2018-01-30T02:29:58.033Z,12.87
2018-01-30T02:32:25.525Z,12.67
2018-01-30T02:34:53.037Z,12.83
2018-01-30T02:37:20.535Z,11.97
2018-01-30T02:39:48.810Z,13.67
2018-01-30T02:42:17.065Z,13.47
2018-01-30T02:44:44.572Z,13.37
2018-01-30T02:47:12.074Z,13.10
2018-01-30T02:49:39.578Z,14.20
2018-01-30T02:52:07.086Z,13.53
2018-01-30T02:54:34.597Z,13.10
2018-01-30T02:57:02.133Z,15.00
2018-01-30T02:59:30.402Z,15.63
2018-01-30T03:01:58.690Z,15.70
2018-01-30T03:04:26.965Z,15.27
2018-01-30T03:06:55.233Z,16.60
2018-01-30T03:09:22.718Z,16.63
2018-01-30T03:11:50.730Z,16.30
2018-01-30T03:14:18.221Z,16.03
2018-01-30T03:16:45.729Z,16.87
2018-01-30T03:19:13.229Z,15.77
2018-01-30T03:21:40.725Z,16.77
2018-01-30T03:24:08.241Z,15.77
2018-01-30T03:26:35.734Z,17.47
2018-01-30T03:29:03.997Z,16.80
2018-01-30T03:31:32.253Z,15.10
2018-01-30T03:33:59.757Z,17.17
2018-01-30T03:36:27.265Z,16.10
2018-01-30T03:38:54.773Z,16.47
2018-01-30T03:41:22.276Z,17.20
2018-01-30T03:43:49.765Z,16.10
2018-01-30T03:46:18.041Z,16.80
2018-01-30T03:48:46.301Z,15.83
2018-01-30T03:51:13.849Z,15.47
2018-01-30T03:53:41.338Z,17.07
2018-01-30T03:56:09.617Z,16.90
2018-01-30T03:58:37.902Z,15.73
2018-01-30T04:01:05.427Z,16.67
2018-01-30T04:03:32.934Z,15.50
2018-01-30T04:06:00.437Z,16.50
2018-01-30T04:08:27.940Z,16.13
2018-01-30T04:10:56.198Z,17.00
2018-01-30T04:13:23.717Z,16.50
2018-01-30T04:15:51.213Z,15.80
2018-01-30T04:18:20.522Z,16.10
2018-01-30T04:20:49.689Z,16.20
2018-01-30T04:23:17.181Z,16.07
2018-01-30T04:25:45.454Z,15.23
2018-01-30T04:28:13.713Z,17.20
2018-01-30T04:30:41.225Z,14.87
2018-01-30T04:33:08.721Z,16.50
2018-01-30T04:35:36.227Z,14.53
2018-01-30T04:38:03.738Z,14.37
2018-01-30T04:40:31.245Z,16.50
2018-01-30T04:42:58.754Z,14.27
2018-01-30T04:45:26.253Z,14.63
2018-01-30T04:47:54.529Z,15.03
2018-01-30T04:50:22.797Z,13.40
2018-01-30T04:52:51.069Z,14.60
2018-01-30T04:55:19.330Z,16.03
2018-01-30T04:57:46.839Z,16.00
2018-01-30T05:00:14.341Z,15.27
2018-01-30T05:02:41.863Z,15.47
2018-01-30T05:05:09.354Z,14.50
2018-01-30T05:07:36.841Z,14.30
2018-01-30T05:10:05.114Z,13.57
2018-01-30T05:12:34.389Z,13.50
2018-01-30T05:15:01.897Z,13.80
2018-01-30T05:17:29.431Z,14.73
2018-01-30T05:19:57.712Z,13.87
2018-01-30T05:22:25.969Z,13.97
2018-01-30T05:24:53.493Z,14.17
2018-01-30T05:27:20.981Z,14.60
2018-01-30T05:29:48.471Z,20.77
2018-01-30T05:32:16.742Z,14.70
2018-01-30T05:34:45.038Z,13.47
2018-01-30T05:37:13.305Z,15.23
2018-01-30T05:39:41.569Z,15.10
2018-01-30T05:42:09.082Z,14.33
2018-01-30T05:44:37.583Z,15.33
2018-01-30T05:47:05.089Z,14.57
2018-01-30T05:49:33.346Z,15.60
2018-01-30T05:52:01.604Z,14.80
2018-01-30T05:54:29.105Z,15.30
2018-01-30T05:56:56.609Z,13.13
2018-01-30T05:59:24.114Z,14.37
2018-01-30T06:01:52.377Z,13.43
2018-01-30T06:04:20.649Z,13.97
2018-01-30T06:06:48.152Z,14.40
2018-01-30T06:09:15.666Z,13.40
2018-01-30T06:11:43.165Z,13.37
2018-01-30T06:14:10.657Z,13.87
2018-01-30T06:16:38.165Z,14.90
2018-01-30T06:19:06.420Z,18.37
2018-01-30T06:21:35.468Z,14.60
2018-01-30T06:24:02.953Z,16.20
2018-01-30T06:26:30.470Z,14.97
2018-01-30T06:28:57.961Z,15.63
2018-01-30T06:31:25.449Z,15.43
2018-01-30T06:33:52.950Z,14.57
2018-01-30T06:36:20.490Z,16.20
2018-01-30T06:38:48.013Z,15.63
2018-01-30T06:41:15.524Z,15.73
2018-01-30T06:43:43.069Z,15.40
2018-01-30T06:46:10.625Z,15.33
2018-01-30T06:48:38.146Z,15.40
2018-01-30T06:51:05.651Z,15.50
2018-01-30T06:53:33.181Z,16.13
2018-01-30T06:56:00.782Z,17.03
2018-01-30T06:58:28.321Z,17.17
2018-01-30T07:00:56.589Z,15.87
2018-01-30T07:03:24.841Z,16.60
2018-01-30T07:05:52.357Z,16.17
2018-01-30T07:08:19.849Z,17.60
2018-01-30T07:10:47.350Z,18.57
2018-01-30T07:13:14.874Z,18.80
2018-01-30T07:15:42.369Z,18.50
2018-01-30T07:18:10.638Z,19.23
2018-01-30T07:20:38.901Z,19.00
2018-01-30T07:23:07.178Z,20.70
2018-01-30T07:25:34.665Z,18.87
2018-01-30T07:28:02.222Z,20.10
2018-01-30T07:30:29.724Z,18.30
2018-01-30T07:32:57.217Z,19.17
2018-01-30T07:35:25.490Z,18.63
2018-01-30T07:37:52.988Z,18.97
2018-01-30T07:40:20.495Z,18.50
2018-01-30T07:42:47.993Z,18.37
2018-01-30T07:45:15.514Z,19.53
2018-01-30T07:47:43.006Z,19.67
2018-01-30T07:50:11.302Z,20.70
2018-01-30T07:52:38.797Z,18.50
2018-01-30T07:55:06.285Z,18.30
2018-01-30T07:57:34.557Z,18.60
2018-01-30T08:00:02.816Z,21.00
2018-01-30T08:02:30.317Z,18.83
2018-01-30T08:04:57.834Z,18.40
2018-01-30T08:07:25.354Z,18.77
2018-01-30T08:09:52.845Z,16.40
2018-01-30T08:12:20.359Z,19.37
2018-01-30T08:14:47.889Z,18.10
2018-01-30T08:17:16.141Z,18.13
2018-01-30T08:19:43.636Z,17.63
2018-01-30T08:22:11.896Z,18.83
2018-01-30T08:24:40.169Z,20.10
2018-01-30T08:27:09.443Z,19.17
2018-01-30T08:29:37.025Z,18.33
2018-01-30T08:32:04.519Z,17.77
2018-01-30T08:34:32.046Z,16.23
2018-01-30T08:36:59.536Z,18.40
2018-01-30T08:39:27.045Z,17.60
2018-01-30T08:41:54.548Z,16.87
2018-01-30T08:44:22.805Z,18.20
2018-01-30T08:46:51.076Z,17.07
2018-01-30T08:49:18.565Z,16.43
2018-01-30T08:51:46.101Z,16.73
2018-01-30T08:54:13.612Z,16.00
2018-01-30T08:56:41.134Z,15.47
2018-01-30T08:59:09.401Z,16.27
2018-01-30T09:01:37.652Z,17.47
2018-01-30T09:04:05.157Z,16.77
2018-01-30T09:06:32.665Z,15.50
2018-01-30T09:09:00.266Z,15.90
2018-01-30T09:11:27.848Z,15.60
2018-01-30T09:13:55.353Z,17.10
2018-01-30T09:16:22.849Z,16.70
2018-01-30T09:18:50.385Z,17.17
2018-01-30T09:21:18.642Z,20.30
2018-01-30T09:23:47.641Z,17.33
2018-01-30T09:26:15.164Z,17.00
2018-01-30T09:28:42.658Z,18.10
2018-01-30T09:31:10.201Z,17.47
2018-01-30T09:33:37.696Z,23.20
2018-01-30T09:36:05.987Z,17.00
2018-01-30T09:38:33.512Z,15.03
2018-01-30T09:41:02.545Z,16.80
2018-01-30T09:43:30.049Z,14.27
2018-01-30T09:45:57.543Z,18.87
2018-01-30T09:48:25.812Z,15.90
2018-01-30T09:50:53.307Z,15.47
2018-01-30T09:53:20.872Z,21.90
2018-01-30T09:55:48.393Z,14.00
2018-01-30T09:58:16.682Z,12.60
2018-01-30T10:00:44.992Z,12.73
2018-01-30T10:03:12.509Z,12.57
2018-01-30T10:05:40.774Z,11.67
2018-01-30T10:08:08.265Z,12.50
2018-01-30T10:10:35.841Z,12.37
2018-01-30T10:13:04.361Z,13.07
2018-01-30T10:15:31.861Z,13.87
2018-01-30T10:18:00.113Z,12.23
2018-01-30T10:20:27.743Z,15.10
2018-01-30T10:22:55.241Z,11.13
2018-01-30T10:25:22.761Z,10.27
2018-01-30T10:27:50.349Z,18.07
2018-01-30T10:30:18.145Z,11.77
2018-01-30T10:32:46.416Z,11.47
2018-01-30T10:35:14.673Z,14.60
2018-01-30T10:37:42.197Z,11.50
2018-01-30T10:40:09.712Z,12.20
2018-01-30T10:42:37.981Z,17.03
2018-01-30T10:45:06.237Z,11.77
2018-01-30T10:47:33.829Z,11.33
2018-01-30T10:50:02.112Z,13.40
2018-01-30T10:52:29.674Z,13.10
2018-01-30T10:54:57.247Z,12.07
2018-01-30T10:57:24.753Z,11.40
2018-01-30T10:59:52.265Z,11.97
2018-01-30T11:02:19.761Z,16.00
2018-01-30T11:04:47.269Z,14.30
2018-01-30T11:07:14.777Z,11.20
2018-01-30T11:11:44.405Z,15.83
2018-01-30T11:14:11.902Z,11.33
2018-01-30T11:16:39.445Z,11.40
2018-01-30T11:19:07.751Z,12.40
2018-01-30T11:21:35.291Z,11.17
2018-01-30T11:24:03.552Z,11.70
2018-01-30T11:26:31.041Z,11.23
2018-01-30T11:28:58.588Z,15.80
2018-01-30T11:31:26.102Z,13.10
2018-01-30T11:33:53.705Z,9.80
2018-01-30T11:36:21.974Z,10.30
2018-01-30T11:38:50.253Z,11.90
2018-01-30T11:41:18.536Z,10.73
2018-01-30T11:43:46.818Z,11.33
2018-01-30T11:46:15.089Z,11.10
2018-01-30T11:48:43.393Z,12.20
2018-01-30T11:51:10.897Z,12.17
2018-01-30T11:53:38.392Z,13.10
2018-01-30T11:56:06.676Z,10.53
2018-01-30T11:58:34.182Z,9.90
2018-01-30T12:01:01.691Z,7.93
2018-01-30T12:03:29.210Z,10.70
2018-01-30T12:05:56.745Z,15.97
2018-01-30T12:08:24.233Z,11.97
2018-01-30T12:10:51.721Z,9.17
2018-01-30T12:13:19.981Z,9.57
2018-01-30T12:15:48.245Z,8.60
2018-01-30T12:18:15.745Z,9.20
2018-01-30T12:20:43.241Z,8.57
2018-01-30T12:23:10.750Z,9.10
2018-01-30T12:25:38.261Z,13.33
2018-01-30T12:28:05.754Z,8.23
2018-01-30T12:30:34.022Z,8.00
2018-01-30T12:33:02.292Z,13.33
2018-01-30T12:35:29.898Z,14.90
2018-01-30T12:37:57.393Z,8.00
2018-01-30T12:40:24.894Z,17.23
2018-01-30T12:42:52.410Z,9.20
2018-01-30T12:45:19.933Z,13.63
2018-01-30T12:47:47.437Z,10.10
2018-01-30T12:50:14.935Z,9.23
2018-01-30T12:52:42.457Z,9.10
2018-01-30T12:55:09.945Z,8.47
2018-01-30T12:57:38.213Z,8.40
2018-01-30T13:00:06.469Z,8.40
2018-01-30T13:02:34.016Z,8.10
2018-01-30T13:05:01.493Z,8.40
2018-01-30T13:07:28.997Z,9.00
2018-01-30T13:09:56.552Z,9.13
2018-01-30T13:12:24.050Z,9.50
2018-01-30T13:14:51.575Z,14.73
2018-01-30T13:17:19.070Z,10.53
2018-01-30T13:19:46.609Z,8.70
2018-01-30T13:22:14.110Z,8.70
2018-01-30T13:24:41.601Z,9.30
2018-01-30T13:27:09.123Z,9.20
2018-01-30T13:29:36.618Z,9.00
2018-01-30T13:32:04.129Z,9.30
2018-01-30T13:34:31.677Z,9.57
2018-01-30T13:36:59.206Z,8.80
2018-01-30T13:39:26.713Z,11.60
2018-01-30T13:41:54.234Z,14.00
2018-01-30T13:44:21.746Z,11.50
2018-01-30T13:46:50.017Z,10.90
2018-01-30T13:49:17.525Z,10.60
2018-01-30T13:51:45.078Z,9.80
2018-01-30T13:54:12.611Z,9.43
2018-01-30T13:56:40.878Z,8.53
2018-01-30T13:59:09.163Z,9.83
2018-01-30T14:01:37.443Z,10.60
2018-01-30T14:04:05.702Z,9.37
2018-01-30T14:06:35.030Z,10.07
2018-01-30T14:09:03.277Z,9.80
2018-01-30T14:11:31.586Z,9.10
2018-01-30T14:13:59.086Z,9.30
2018-01-30T14:16:26.574Z,8.87
2018-01-30T14:18:54.080Z,19.10
2018-01-30T14:21:21.573Z,9.13
2018-01-30T14:23:49.108Z,10.10
2018-01-30T14:26:16.652Z,9.67
2018-01-30T14:28:44.172Z,10.77
2018-01-30T14:31:12.437Z,9.33
2018-01-30T14:33:39.928Z,9.77
2018-01-30T14:36:07.457Z,13.43
2018-01-30T14:38:34.946Z,9.07
2018-01-30T14:41:03.225Z,11.67
2018-01-30T14:43:30.740Z,9.83
2018-01-30T14:45:58.254Z,8.70
2018-01-30T14:48:25.757Z,8.73
2018-01-30T14:50:53.253Z,9.07
2018-01-30T14:53:21.527Z,8.93
2018-01-30T14:55:49.781Z,8.10
2018-01-30T14:58:17.281Z,8.60
2018-01-30T15:00:45.346Z,9.20
2018-01-30T15:03:12.885Z,8.47
2018-01-30T15:05:41.146Z,10.03
2018-01-30T15:08:08.702Z,10.53
2018-01-30T15:10:36.238Z,19.63
2018-01-30T15:13:04.205Z,27.73
2018-01-30T15:15:31.718Z,13.27
2018-01-30T15:18:00.008Z,10.10
2018-01-30T15:20:27.542Z,10.37
2018-01-30T15:22:57.319Z,10.10
2018-01-30T15:25:24.820Z,11.03
2018-01-30T15:27:53.097Z,11.13
2018-01-30T15:30:21.362Z,11.93
2018-01-30T15:32:48.945Z,11.30
2018-01-30T15:35:17.198Z,9.57
2018-01-30T15:37:44.757Z,11.43
2018-01-30T15:40:12.255Z,10.87
2018-01-30T15:42:39.752Z,10.13
2018-01-30T15:45:07.261Z,18.27
2018-01-30T15:47:35.517Z,11.17
2018-01-30T15:50:03.932Z,13.70
2018-01-30T15:52:31.425Z,29.67
2018-01-30T15:54:58.929Z,9.70
2018-01-30T15:57:27.185Z,10.83
2018-01-30T15:59:54.788Z,10.20
2018-01-30T16:02:22.281Z,10.53
2018-01-30T16:04:49.769Z,10.97
2018-01-30T16:07:18.045Z,12.10
2018-01-30T16:09:46.305Z,11.40
2018-01-30T16:12:13.843Z,10.23
2018-01-30T16:14:41.334Z,11.23
2018-01-30T16:17:08.845Z,10.97
2018-01-30T16:19:36.334Z,17.33
2018-01-30T16:22:03.837Z,11.50
2018-01-30T16:24:31.597Z,10.83
2018-01-30T16:26:59.153Z,11.97
2018-01-30T16:29:27.421Z,11.10
2018-01-30T16:31:55.822Z,11.20
2018-01-30T16:34:23.361Z,16.80
2018-01-30T16:36:51.676Z,11.03
2018-01-30T16:39:19.184Z,11.57
2018-01-30T16:42:18.447Z,11.87
2018-01-30T16:44:46.098Z,12.13
2018-01-30T16:47:13.781Z,11.13
2018-01-30T16:49:41.286Z,10.83
2018-01-30T16:52:09.653Z,10.00
2018-01-30T16:54:37.209Z,13.83
2018-01-30T16:57:04.698Z,11.00
2018-01-30T16:59:32.220Z,20.50
2018-01-30T17:02:00.232Z,12.43
2018-01-30T17:04:28.850Z,10.97
2018-01-30T17:06:56.446Z,10.93
